CheckWX is a tool to help pilots better visualize weather data.  It is not intended as a substitute for an official pre-flight weather briefing.

17:26:43 UTC

KBFM METAR
Mobile Downtown Airport
Mobile, Alabama, USA
Current

34 mins ago

KBFM 241653Z 13006KT 10SM CLR 21/12 A3026 RMK AO2 SLP248 T02110117
Observed
Mar-24 @ 16:53 UTC
Wind
  • 130° at 6 KTS
Visibility
10 SM
Flight Rules
VFR
Cloud Levels
  • Clear skies
Temperature
21°C / 70°F
Dewpoint
12°C / 54°F
Humidity
57%
Altimeter
30.26" Hg
Pressure
1024.8 hPa
Previous

2 hours ago

KBFM 241553Z 11005KT 10SM CLR 19/11 A3027 RMK AO2 SLP250 T01940111
Observed
Mar-24 @ 15:53 UTC
Wind
  • 110° at 5 KTS
Visibility
10 SM
Flight Rules
VFR
Cloud Levels
  • Clear skies
Temperature
19°C / 66°F
Dewpoint
11°C / 52°F
Humidity
60%
Altimeter
30.27" Hg
Pressure
1025 hPa
Previous

3 hours ago

KBFM 241453Z 00000KT 10SM CLR 18/11 A3027 RMK AO2 SLP249 T01780111 51009
Observed
Mar-24 @ 14:53 UTC
Visibility
10 SM
Flight Rules
VFR
Cloud Levels
  • Clear skies
Temperature
18°C / 64°F
Dewpoint
11°C / 52°F
Humidity
64%
Altimeter
30.27" Hg
Pressure
1024.9 hPa